South Montesano, Washington
Current Conditions -  °F | °C
As of 3:53 PM on Saturday 20 Dec 2014 (Local Time) from KSHN Reporting Station
Moderate Rain Moderate Rain  
Wind Chill: 45°   Ceiling: 1100
Heat Index: 45°   Visibility: 2mi
Dew Point: 44°   Wind: 0mph
Humidity: 97%   Direction: NA
Pressure: 29.44"   Gusts: NA
Location:  47.555°N, 123.746°W
Report Text: KSHN 202353Z AUTO 00000KT 2SM RA BR OVC011 07/07 A2944 RMK AO2 SLP973 P0022 60078 T00720067 10072 20067 58021
Loading
Personal Weather Stations






























Interactive Weather Map New forecast layout! Learn more

10-Day Weather Forecast

Advertisements
Track Severe Weather on mobile